• Join FlightAware (Why Join?)
  • Login
  • US Flag GB Flag 
04:26 EDT


 

Airport Tracker/Info


-or-


 

Live Flight TrackerFlight Track Log ✈ AVN11 ✈ 14-Jan-2014 ✈ YSSY / SYD - NVVV / VLI

Flight Track Log - Related Links

Times and Time Zones

All times are in EST time to prevent confusion due to time zone crossing. See the AVN11 flight status page for this flight to view local times or setup timezone preferences in your user account.

Time Position Orientation Groundspeed Altitude Reporting Facility
EST Latitude Longitude Course Direction KTS MPH feet Rate Location/Type
06:42 -33.9117 151.1651 312° West 178 205 2,100  Level Aus ATC (RADAR)
06:42 -33.8940 151.1414 312° West 213 245 3,300 2,760 Climbing Aus ATC (RADAR)
06:43 -33.8680 151.1063 312° West 236 272 4,900 2,640 Climbing Aus ATC (RADAR)
06:44 -33.8309 151.0634 316° Northwest 273 314 6,600 2,340 Climbing Aus ATC (RADAR)
06:44 -33.7959 151.0224 316° Northwest 304 350 7,800 2,460 Climbing Aus ATC (RADAR)
06:45 -33.7581 150.9751 314° West 321 369 9,400 2,760 Climbing Aus ATC (RADAR)
06:46 -33.6982 150.9478 339° North 340 391 11,400 2,940 Climbing Aus ATC (RADAR)
06:46 -33.6546 150.9873 37° Northeast 334 384 13,200 2,400 Climbing Aus ATC (RADAR)
06:47 -33.6591 151.0732 94° East 353 406 14,600 2,280 Climbing Aus ATC (RADAR)
06:47 -33.6701 151.1327 103° East 362 417 16,100 2,940 Climbing Aus ATC (RADAR)
06:48 -33.6446 151.1927 63° Northeast 374 430 17,700 2,340 Climbing Aus ATC (RADAR)
06:48 -33.6094 151.2529 55° Northeast 382 440 18,800 1,800 Climbing Aus ATC (RADAR)
06:49 -33.5788 151.3075 56° Northeast 396 456 19,700 2,040 Climbing Aus ATC (RADAR)
06:50 -33.5452 151.3667 56° Northeast 399 459 20,900 2,340 Climbing Aus ATC (RADAR)
06:50 -33.5080 151.4323 56° Northeast 405 466 22,300 2,100 Climbing Aus ATC (RADAR)
06:51 -33.4672 151.5047 56° Northeast 419 482 23,500 1,680 Climbing Aus ATC (RADAR)
06:51 -33.4291 151.5729 56° Northeast 428 493 24,400 1,740 Climbing Aus ATC (RADAR)
06:52 -33.3726 151.6720 56° Northeast 438 504 26,000 1,800 Climbing Aus ATC (RADAR)
06:53 -33.3441 151.7218 56° Northeast 439 505 26,700 1,680 Climbing Aus ATC (RADAR)
06:53 -33.3060 151.7854 54° Northeast 435 501 27,600 1,860 Climbing Aus ATC (RADAR)
06:54 -33.2598 151.8657 55° Northeast 434 499 29,000 1,860 Climbing Aus ATC (RADAR)
06:54 -33.2226 151.9321 56° Northeast 443 510 29,900 1,620 Climbing Aus ATC (RADAR)
06:55 -33.1852 151.9953 55° Northeast 432 497 30,800 1,560 Climbing Aus ATC (RADAR)
06:56 -33.1364 152.0815 56° Northeast 441 507 31,900 1,560 Climbing Aus ATC (RADAR)
06:56 -33.0998 152.1438 55° Northeast 426 490 32,800 960 Climbing Aus ATC (RADAR)
06:57 -33.0598 152.2135 56° Northeast 429 494 33,000 300 Climbing Aus ATC (RADAR)
06:57 -33.0065 152.3056 55° Northeast 442 509 33,200 120 Climbing Aus ATC (RADAR)
06:58 -32.9644 152.3778 55° Northeast 445 512 33,200  Level Aus ATC (RADAR)
06:59 -32.9225 152.4497 55° Northeast 443 510 33,200  Level Aus ATC (RADAR)
06:59 -32.8747 152.5323 55° Northeast 443 510 33,200  Level Aus ATC (RADAR)
07:00 -32.7967 152.6656 55° Northeast 442 509 33,200  Level Aus ATC (RADAR)
07:01 -32.7204 152.7951 55° Northeast 454 522 33,200  Level Aus ATC (RADAR)
07:02 -32.6466 152.9204 55° Northeast 440 506 33,200  Level Aus ATC (RADAR)
07:03 -32.5709 153.0495 55° Northeast 453 521 33,200  Level Aus ATC (RADAR)
07:04 -32.4966 153.1736 55° Northeast 439 505 33,200  Level Aus ATC (RADAR)
07:05 -32.4247 153.2941 55° Northeast 436 502 33,200  Level Aus ATC (RADAR)
07:07 -32.3476 153.4212 54° Northeast 452 520 33,200  Level Aus ATC (RADAR)
07:08 -32.2703 153.5526 55° Northeast 451 519 33,300  Climbing Aus ATC (RADAR)
07:09 -32.1906 153.6867 55° Northeast 437 503 33,200 -60 Descending Aus ATC (RADAR)
07:09 -32.1487 153.7565 55° Northeast 433 498 33,200  Level Aus ATC (RADAR)
07:11 -32.0398 153.9361 54° Northeast 436 502 33,300  Climbing Aus ATC (RADAR)
07:12 -31.9306 154.1163 55° Northeast 437 503 33,300  Level Aus ATC (RADAR)
07:13 -31.8777 154.2033 54° Northeast 454 522 33,300  Level Aus ATC (RADAR)
07:14 -31.7981 154.3344 54° Northeast 456 525 33,300  Level Aus ATC (RADAR)
07:15 -31.7238 154.4558 54° Northeast 460 529 33,300 -60 Level Aus ATC (RADAR)
07:16 -31.6471 154.5800 54° Northeast 444 511 33,200  Descending Aus ATC (RADAR)
07:17 -31.5662 154.7118 54° Northeast 444 511 33,300  Climbing Aus ATC (RADAR)
07:18 -31.4818 154.8496 54° Northeast 459 528 33,300  Level Aus ATC (RADAR)
07:19 -31.4044 154.9733 54° Northeast 441 507 33,300  Level Aus ATC (RADAR)
07:20 -31.3226 155.1043 54° Northeast 442 509 33,300  Level Aus ATC (RADAR)
07:22 -31.2357 155.2436 54° Northeast 439 505 33,300  Level Aus ATC (RADAR)
07:23 -31.1581 155.3699 54° Northeast 454 522 33,300  Level Aus ATC (RADAR)
07:24 -31.0744 155.5016 53° Northeast 435 501 33,300 -60 Level Aus ATC (RADAR)
07:25 -30.9925 155.6297 53° Northeast 437 503 33,200 -60 Descending Aus ATC (RADAR)
07:26 -30.9172 155.7536 55° Northeast 448 516 33,200  Level Aus ATC (RADAR)
07:27 -30.8183 155.9091 53° Northeast 446 513 33,300  Climbing Aus ATC (RADAR)
07:28 -30.7499 155.9994 49° Northeast 446 513 33,200  Descending Aus ATC (RADAR)
07:29 -30.6616 156.1167 49° Northeast 445 512 33,300  Climbing Aus ATC (RADAR)
07:30 -30.5662 156.2436 49° Northeast 446 513 33,200  Descending Aus ATC (RADAR)
07:31 -30.4772 156.3614 49° Northeast 448 516 33,300  Climbing Aus ATC (RADAR)
07:32 -30.3947 156.4702 49° Northeast 449 517 33,300  Level Aus ATC (RADAR)
07:34 -30.2983 156.5972 49° Northeast 449 517 33,300  Level Aus ATC (RADAR)
07:35 -30.2087 156.7149 49° Northeast 449 517 33,300  Level Aus ATC (RADAR)
07:36 -30.1256 156.8235 49° Northeast 450 518 33,300  Level Aus ATC (RADAR)
07:37 -30.0284 156.9506 49° Northeast 452 520 33,300  Level Aus ATC (RADAR)
07:38 -29.9406 157.0665 49° Northeast 442 509 33,300  Level Aus ATC (RADAR)
07:39 -29.8570 157.1748 48° Northeast 447 514 33,300  Level Aus ATC (RADAR)
07:40 -29.7592 157.3016 48° Northeast 452 520 33,300  Level Aus ATC (RADAR)
07:41 -29.6679 157.4190 48° Northeast 451 519 33,300  Level Aus ATC (RADAR)
07:42 -29.5627 157.5538 48° Northeast 452 520 33,300  Level Aus ATC (RADAR)
07:43 -29.4916 157.6437 48° Northeast 453 521 33,300  Level Aus ATC (RADAR)
07:44 -29.4083 157.7506 48° Northeast 450 518 33,300  Level Aus ATC (RADAR)
07:45 -29.3176 157.8665 48° Northeast 447 514 33,300  Level Aus ATC (RADAR)
07:46 -29.2231 157.9897 49° Northeast 442 509 33,300  Level Aus ATC (RADAR)
07:47 -29.1380 158.0958 47° Northeast 446 513 33,300  Level Aus ATC (RADAR)
07:48 -29.0581 158.1933 47° Northeast 451 519 33,300  Level Aus ATC (RADAR)
07:51 -28.8077 158.5007 47° Northeast 33,000 -120 Descending Aus ATC (Calculated)
07:53 -28.7245 158.6023 47° Northeast  Level FlightAware Approximate
07:54 -28.6439 158.7004 47° Northeast  Level FlightAware Approximate
07:55 -28.5632 158.7984 47° Northeast  Level FlightAware Approximate
07:55 -28.4622 158.9209 227° Southwest 33,000  Level Aus ATC (Calculated)
07:56 -28.4825 158.8963 47° Northeast  Level FlightAware Approximate
07:57 -28.3665 159.0365 47° Northeast  Level FlightAware Approximate
07:58 -28.2856 159.1340 47° Northeast  Level FlightAware Approximate
07:58 -28.2481 159.1833 239° Southwest 33,000  Level Aus ATC (Calculated)
07:59 -28.3090 159.0686 239° Southwest  Level FlightAware Approximate
08:00 -28.2481 159.1833 59° Northeast  Level FlightAware Approximate
08:01 -28.3090 159.0686 239° Southwest  Level FlightAware Approximate
08:01 -27.9966 159.4895 40° Northeast 33,000  Level Aus ATC (Calculated)
08:02 -27.9064 159.5755 47° Northeast  Level Estimated
08:02 -27.9037 159.6020 39° Northeast 33,000  Level Aus ATC (Calculated)
08:03 -27.8261 159.6732 47° Northeast  Level FlightAware Approximate
08:04 -27.7564 159.7797 47° Northeast  Level FlightAware Approximate
08:05 -27.6753 159.8774 47° Northeast  Level FlightAware Approximate
08:06 -27.5940 159.9749 47° Northeast  Level FlightAware Approximate
08:07 -27.5128 160.0722 47° Northeast  Level FlightAware Approximate
08:08 -27.4314 160.1694 47° Northeast  Level FlightAware Approximate
08:08 -27.3165 160.3062 227° Southwest 33,000  Level Aus ATC (Calculated)
08:09 -27.3500 160.2665 47° Northeast  Level FlightAware Approximate
08:10 -27.2214 160.4192 47° Northeast  Level FlightAware Approximate
08:10 -27.1359 160.5206 227° Southwest 33,000  Level Aus ATC (Calculated)
08:11 -27.1398 160.5159 47° Northeast  Level FlightAware Approximate
08:12 -27.0447 160.6284 46° Northeast  Level FlightAware Approximate
08:12 -26.9356 160.7569 226° Southwest 33,000  Level Aus ATC (Calculated)
08:13 -26.9629 160.7248 46° Northeast  Level FlightAware Approximate
08:14 -26.8442 160.8643 46° Northeast  Level FlightAware Approximate
08:14 -26.7538 160.9704 226° Southwest 33,000  Level Aus ATC (Calculated)
08:15 -26.7623 160.9604 46° Northeast  Level FlightAware Approximate
08:16 -26.6622 161.0775 46° Northeast  Level FlightAware Approximate
08:17 -26.5802 161.1732 46° Northeast  Level FlightAware Approximate
08:18 -26.4981 161.2688 46° Northeast  Level FlightAware Approximate
08:18 -26.4785 161.2915 46° Northeast 33,000  Level Aus ATC (Calculated)
08:19 -26.4159 161.3643 46° Northeast  Level FlightAware Approximate
08:20 -26.3141 161.4823 46° Northeast  Level FlightAware Approximate
08:20 -26.2923 161.5074 46° Northeast 33,000  Level Aus ATC (Calculated)
08:21 -26.2100 161.6026 46° Northeast  Level FlightAware Approximate
08:22 -26.1276 161.6976 46° Northeast  Level FlightAware Approximate
08:23 -26.0451 161.7924 46° Northeast  Level FlightAware Approximate
08:24 -25.9626 161.8872 46° Northeast  Level FlightAware Approximate
08:25 -25.8800 161.9818 46° Northeast  Level FlightAware Approximate
08:26 -25.7974 162.0762 46° Northeast  Level FlightAware Approximate
08:27 -25.7147 162.1705 46° Northeast  Level FlightAware Approximate
08:28 -25.6319 162.2647 46° Northeast  Level FlightAware Approximate
08:29 -25.5491 162.3588 46° Northeast  Level FlightAware Approximate
08:30 -25.4662 162.4527 46° Northeast  Level FlightAware Approximate
08:30 -25.4328 162.4906 46° Northeast 33,000  Level Aus ATC (Calculated)
08:31 -25.3498 162.5843 46° Northeast  Level FlightAware Approximate
08:32 -25.2668 162.6780 46° Northeast  Level FlightAware Approximate
08:33 -25.1837 162.7715 46° Northeast  Level FlightAware Approximate
08:34 -25.1005 162.8648 45° Northeast  Level FlightAware Approximate
08:35 -25.0173 162.9581 45° Northeast  Level FlightAware Approximate
08:36 -24.9340 163.0512 45° Northeast  Level FlightAware Approximate
08:37 -25.0173 162.9581 225° Southwest  Level FlightAware Approximate
08:38 -24.9340 163.0512 45° Northeast  Level FlightAware Approximate
08:39 -25.0173 162.9581 225° Southwest  Level FlightAware Approximate
08:40 -24.9205 163.0337 45° Northeast  Level Estimated
08:41 -24.8380 163.1275 46° Northeast  Level FlightAware Approximate
08:42 -24.7555 163.2213 46° Northeast  Level FlightAware Approximate
08:43 -24.6728 163.3149 46° Northeast  Level FlightAware Approximate
08:44 -24.5902 163.4084 46° Northeast  Level FlightAware Approximate
08:45 -24.5074 163.5018 46° Northeast  Level FlightAware Approximate
08:46 -24.4246 163.5950 46° Northeast  Level FlightAware Approximate
08:47 -24.3418 163.6881 46° Northeast  Level FlightAware Approximate
08:48 -24.2589 163.7811 46° Northeast  Level FlightAware Approximate
08:49 -24.1759 163.8740 46° Northeast  Level FlightAware Approximate
08:50 -24.0928 163.9667 46° Northeast  Level FlightAware Approximate
08:51 -24.0098 164.0594 46° Northeast  Level FlightAware Approximate
08:52 -23.9266 164.1519 45° Northeast  Level FlightAware Approximate
08:53 -23.8434 164.2443 45° Northeast  Level FlightAware Approximate
08:54 -23.7602 164.3366 45° Northeast  Level FlightAware Approximate
08:55 -23.6769 164.4287 45° Northeast  Level FlightAware Approximate
08:56 -23.5935 164.5208 45° Northeast  Level FlightAware Approximate
08:57 -23.5101 164.6127 45° Northeast  Level FlightAware Approximate
08:58 -23.4090 164.6802 45° Northeast  Level Estimated
08:59 -23.3259 164.7723 45° Northeast  Level FlightAware Approximate
09:00 -23.2426 164.8642 45° Northeast  Level FlightAware Approximate
09:01 -23.1594 164.9561 45° Northeast  Level FlightAware Approximate
09:02 -23.0761 165.0478 45° Northeast  Level FlightAware Approximate
09:03 -22.9927 165.1394 45° Northeast  Level FlightAware Approximate
09:04 -22.9093 165.2309 45° Northeast  Level FlightAware Approximate
09:05 -22.8258 165.3223 45° Northeast  Level FlightAware Approximate
09:06 -22.7422 165.4135 45° Northeast  Level FlightAware Approximate
09:07 -22.6587 165.5047 45° Northeast  Level FlightAware Approximate
09:08 -22.5750 165.5957 45° Northeast  Level FlightAware Approximate
09:09 -22.4913 165.6867 45° Northeast  Level FlightAware Approximate
09:10 -22.4076 165.7775 45° Northeast  Level FlightAware Approximate
09:11 -22.3238 165.8682 45° Northeast  Level FlightAware Approximate
09:12 -22.2400 165.9588 45° Northeast  Level FlightAware Approximate
09:13 -22.1561 166.0493 45° Northeast  Level FlightAware Approximate
09:14 -22.0721 166.1397 45° Northeast  Level FlightAware Approximate
09:15 -21.9651 166.1948 24° Northeast  Level Estimated
09:16 -21.8573 166.2481 25° Northeast  Level FlightAware Approximate
09:17 -21.7496 166.3013 25° Northeast  Level FlightAware Approximate
09:18 -21.6418 166.3545 25° Northeast  Level FlightAware Approximate
09:19 -21.5340 166.4076 25° Northeast  Level FlightAware Approximate
09:20 -21.4261 166.4606 25° Northeast  Level FlightAware Approximate
09:21 -21.3183 166.5135 25° Northeast  Level FlightAware Approximate
09:22 -21.2104 166.5663 25° Northeast  Level FlightAware Approximate
09:23 -21.1026 166.6191 25° Northeast  Level FlightAware Approximate
09:24 -20.9947 166.6718 25° Northeast  Level FlightAware Approximate
09:25 -20.8868 166.7244 24° Northeast  Level FlightAware Approximate
09:26 -20.7789 166.7769 24° Northeast  Level FlightAware Approximate
09:27 -20.6709 166.8294 24° Northeast  Level FlightAware Approximate
09:28 -20.5630 166.8818 24° Northeast  Level FlightAware Approximate
09:29 -20.4550 166.9341 24° Northeast  Level FlightAware Approximate
09:30 -20.3470 166.9863 24° Northeast  Level FlightAware Approximate
09:31 -20.2390 167.0385 24° Northeast  Level FlightAware Approximate
09:32 -20.1310 167.0906 24° Northeast  Level FlightAware Approximate
09:33 -20.0229 167.1426 24° Northeast  Level FlightAware Approximate
09:34 -19.9149 167.1946 24° Northeast  Level FlightAware Approximate
09:35 -19.8068 167.2464 24° Northeast  Level FlightAware Approximate
09:36 -19.6988 167.2982 24° Northeast  Level FlightAware Approximate
09:37 -19.5907 167.3500 24° Northeast  Level FlightAware Approximate
09:38 -19.4842 167.4053 24° Northeast  Level Estimated
09:39 -19.3755 167.4555 24° Northeast  Level FlightAware Approximate
09:40 -19.2667 167.5056 24° Northeast  Level FlightAware Approximate
09:41 -19.1580 167.5557 24° Northeast  Level FlightAware Approximate
09:42 -19.0493 167.6057 23° Northeast  Level FlightAware Approximate
09:43 -18.9405 167.6556 23° Northeast  Level FlightAware Approximate
09:44 -18.8317 167.7055 23° Northeast  Level FlightAware Approximate
09:45 -18.7229 167.7553 23° Northeast  Level FlightAware Approximate
09:46 -18.6141 167.8051 23° Northeast  Level FlightAware Approximate
09:47 -18.5450 167.8367 24° Northeast  Level FlightAware Approximate
09:48 -18.4409 167.8965 24° Northeast  Level Estimated
09:49 -18.5450 167.8367 24° Northeast  Level FlightAware Approximate
09:50 -18.4409 167.8965 24° Northeast  Level Estimated
09:51 -18.5450 167.8367 24° Northeast  Level FlightAware Approximate
09:52 -18.4409 167.8965 24° Northeast  Level Estimated
09:53 -18.5450 167.8367 24° Northeast  Level FlightAware Approximate
09:54 -18.4409 167.8965 24° Northeast  Level Estimated
09:55 -18.5450 167.8367 24° Northeast  Level FlightAware Approximate
09:56 -18.4409 167.8965 24° Northeast  Level Estimated
09:57 -18.5450 167.8367 24° Northeast  Level FlightAware Approximate
09:58 -18.4409 167.8965 24° Northeast  Level Estimated
09:59 -18.5450 167.8367 24° Northeast  Level FlightAware Approximate
10:00 -18.4409 167.8965 24° Northeast  Level Estimated
10:01 -18.5450 167.8367 24° Northeast  Level FlightAware Approximate
10:02 -18.4409 167.8965 24° Northeast  Level Estimated
10:03 -18.5450 167.8367 24° Northeast  Level FlightAware Approximate
10:04 -18.4409 167.8965 24° Northeast  Level Estimated
10:05 -18.5450 167.8367 24° Northeast  Level FlightAware Approximate
10:06 -18.4409 167.8965 24° Northeast  Level Estimated
10:07 -18.5450 167.8367 24° Northeast  Level FlightAware Approximate